Atka, Alaska
Current Conditions -  °F | °C
As of 8:56 PM on Sunday 21 Dec 2014 (Local Time) from PAAK Reporting Station
Overcast Overcast  
Wind Chill:   Ceiling: 4100
Heat Index:   Visibility: 10mi
Dew Point: -3°   Wind: 0mph
Humidity: 70%   Direction: NA
Pressure: 29.87"   Gusts: NA
Location:  52.19°N, 174.2°W
Report Text: PAAK 220656Z 00000KT 10SM OVC041 02/M03 A2987 RMK AO1
Loading
Personal Weather Stations






























Interactive Weather Map New forecast layout! Learn more

10-Day Weather Forecast

Advertisements
Track Severe Weather on mobile